Time;durP1;ratioP1;P1;durP2;ratioP2;P2;SDS_P1;SDS_P2;PMS_P1;PMS_P2;Temp;Humidity;BMP_temperature;BMP_pressure;BME280_temperature;BME280_humidity;BME280_pressure;Samples;Min_cycle;Max_cycle;Signal;HPM_P1;HPM_P2
2021/03/14 00:00:51;;;;;;;53.15;34.35;;;205.30;2252.80;;;;;;5062616;28;20029;-73
2021/03/14 00:03:19;;;;;;;48.65;33.60;;;205.30;2252.80;;;;;;5078429;28;20100;-74
2021/03/14 00:05:47;;;;;;;50.83;32.97;;;205.30;2252.80;;;;;;5093329;28;20046;-74
2021/03/14 00:08:13;;;;;;;50.97;34.67;;;205.30;2252.80;;;;;;5090989;28;20512;-74
2021/03/14 00:10:46;;;;;;;54.90;34.53;;;205.30;2252.80;;;;;;5092199;28;20115;-73
2021/03/14 00:13:13;;;;;;;49.53;33.53;;;205.30;2252.80;;;;;;5088136;28;20030;-74
2021/03/14 00:15:39;;;;;;;50.05;35.58;;;205.30;2252.80;;;;;;5093218;28;20054;-73
2021/03/14 00:18:05;;;;;;;47.67;32.70;;;205.40;2252.80;;;;;;5077081;28;20547;-73
2021/03/14 00:20:32;;;;;;;48.80;34.90;;;205.30;2252.80;;;;;;5095434;28;20028;-73
2021/03/14 00:22:58;;;;;;;48.30;33.38;;;205.30;2252.80;;;;;;5100404;28;20066;-74
2021/03/14 00:25:23;;;;;;;49.50;34.55;;;205.20;2252.80;;;;;;5085940;28;20047;-74
2021/03/14 00:27:49;;;;;;;50.72;33.65;;;205.20;2252.80;;;;;;5080327;28;20044;-73
2021/03/14 00:30:16;;;;;;;49.45;33.92;;;205.20;2252.80;;;;;;5084024;28;20058;-74
2021/03/14 00:32:43;;;;;;;50.70;35.60;;;205.20;2252.80;;;;;;5083478;28;20523;-73
2021/03/14 00:35:17;;;;;;;47.92;32.40;;;205.20;2252.80;;;;;;5095998;28;20408;-73
2021/03/14 00:37:43;;;;;;;44.30;31.55;;;205.20;2252.80;;;;;;5076462;28;20024;-74
2021/03/14 00:40:09;;;;;;;46.58;31.75;;;205.10;2252.80;;;;;;5091565;28;20040;-73
2021/03/14 00:42:35;;;;;;;43.53;30.00;;;205.10;2252.80;;;;;;5082583;28;20035;-74
2021/03/14 00:45:05;;;;;;;44.08;31.38;;;205.20;2252.80;;;;;;5086159;28;20040;-74
2021/03/14 00:47:32;;;;;;;40.50;30.13;;;205.20;2252.80;;;;;;5105680;28;20024;-74
2021/03/14 00:49:57;;;;;;;39.90;28.52;;;205.10;2252.80;;;;;;5088017;28;20404;-75
2021/03/14 00:52:23;;;;;;;43.70;30.48;;;205.30;2252.80;;;;;;5069011;28;20024;-74
2021/03/14 00:54:49;;;;;;;46.38;30.88;;;205.20;2252.80;;;;;;5090988;28;20036;-74
2021/03/14 00:57:14;;;;;;;41.53;28.65;;;205.30;2252.80;;;;;;5073716;28;20369;-73
2021/03/14 00:59:40;;;;;;;43.15;29.15;;;205.20;2252.80;;;;;;5093634;28;20073;-73
2021/03/14 01:02:06;;;;;;;45.33;30.60;;;205.20;2252.80;;;;;;5064315;28;20033;-74
2021/03/14 01:04:32;;;;;;;41.85;29.80;;;205.30;2252.80;;;;;;5090788;28;20028;-75
2021/03/14 01:06:57;;;;;;;40.65;29.25;;;205.30;2252.80;;;;;;5092184;28;20041;-74
2021/03/14 01:09:23;;;;;;;44.15;31.10;;;205.30;2252.80;;;;;;5093595;28;20400;-74
2021/03/14 01:11:49;;;;;;;42.60;29.55;;;205.40;2252.80;;;;;;5085169;28;20036;-74
2021/03/14 01:14:15;;;;;;;41.47;29.55;;;205.30;2252.80;;;;;;5067970;28;20047;-74
2021/03/14 01:16:40;;;;;;;43.30;30.65;;;205.40;2252.80;;;;;;5082749;28;20029;-74
2021/03/14 01:19:06;;;;;;;48.60;29.77;;;205.30;2252.80;;;;;;5055487;28;20079;-74
2021/03/14 01:21:32;;;;;;;47.70;30.70;;;205.30;2252.80;;;;;;5062379;28;20021;-74
2021/03/14 01:23:58;;;;;;;41.30;29.40;;;205.40;2252.80;;;;;;5050328;28;20501;-74
2021/03/14 01:26:24;;;;;;;41.13;28.40;;;205.40;2252.80;;;;;;5069032;28;20032;-74
2021/03/14 01:28:50;;;;;;;39.40;28.65;;;205.30;2252.80;;;;;;5053644;28;20064;-74
2021/03/14 01:31:15;;;;;;;40.08;28.23;;;205.30;2252.80;;;;;;5050289;28;20036;-74
2021/03/14 01:33:41;;;;;;;46.88;29.42;;;205.40;2252.80;;;;;;5053998;28;20029;-74
2021/03/14 01:36:07;;;;;;;40.35;27.85;;;205.30;2252.80;;;;;;5056071;28;20053;-73
2021/03/14 01:38:33;;;;;;;39.28;28.63;;;205.30;2252.80;;;;;;5055122;28;20432;-74
2021/03/14 01:41:00;;;;;;;38.33;27.98;;;205.30;2252.80;;;;;;5053700;28;20025;-74
2021/03/14 01:43:28;;;;;;;43.00;29.00;;;205.30;2252.80;;;;;;5085431;28;20037;-73
2021/03/14 01:45:54;;;;;;;45.60;30.45;;;205.30;2252.80;;;;;;5051452;28;20040;-74
2021/03/14 01:48:24;;;;;;;39.13;28.38;;;205.20;2252.80;;;;;;5053186;28;20029;-74
2021/03/14 01:50:51;;;;;;;40.30;28.45;;;205.30;2252.80;;;;;;5052640;28;20040;-74
2021/03/14 01:53:17;;;;;;;42.30;28.15;;;205.20;2252.80;;;;;;5052493;28;20024;-74
2021/03/14 01:55:44;;;;;;;41.25;29.23;;;205.20;2252.80;;;;;;5050748;28;20044;-74
2021/03/14 01:58:11;;;;;;;40.60;28.08;;;205.10;2252.80;;;;;;5051631;28;20079;-75
2021/03/14 02:00:37;;;;;;;39.92;29.60;;;205.10;2252.80;;;;;;5053230;28;20051;-74
2021/03/14 02:03:03;;;;;;;38.42;27.23;;;205.10;2252.80;;;;;;5051088;28;20041;-75
2021/03/14 02:05:29;;;;;;;57.33;29.83;;;205.00;2252.80;;;;;;5053542;28;20029;-74
2021/03/14 02:07:55;;;;;;;39.60;25.60;;;205.00;2252.80;;;;;;5050154;28;20044;-74
2021/03/14 02:10:23;;;;;;;38.30;27.73;;;205.00;2252.80;;;;;;5050063;28;20481;-74
2021/03/14 02:12:55;;;;;;;37.47;26.25;;;205.00;2252.80;;;;;;5066430;28;20079;-74
2021/03/14 02:15:23;;;;;;;37.60;26.58;;;205.00;2252.80;;;;;;5077256;28;20044;-73
2021/03/14 02:17:52;;;;;;;34.72;24.63;;;205.00;2252.80;;;;;;5090417;28;20159;-73
2021/03/14 02:20:20;;;;;;;38.53;26.25;;;204.90;2252.80;;;;;;5092659;28;20020;-74
2021/03/14 02:23:02;;;;;;;38.63;26.33;;;204.90;2252.80;;;;;;5077707;28;20028;-73
2021/03/14 02:25:34;;;;;;;34.13;25.65;;;204.90;2252.80;;;;;;5095618;28;20024;-74
2021/03/14 02:28:01;;;;;;;33.97;25.63;;;204.80;2252.80;;;;;;5086596;28;20438;-73
2021/03/14 02:30:26;;;;;;;36.85;26.75;;;204.80;2252.80;;;;;;5084297;28;20035;-73
2021/03/14 02:32:53;;;;;;;38.03;24.63;;;204.80;2252.80;;;;;;5093044;28;20028;-73
2021/03/14 02:35:20;;;;;;;35.40;24.95;;;204.80;2252.80;;;;;;5086457;28;20024;-73
2021/03/14 02:37:48;;;;;;;32.35;23.88;;;204.80;2252.80;;;;;;5069207;28;20028;-73
2021/03/14 02:40:15;;;;;;;37.17;24.40;;;204.80;2252.80;;;;;;5084003;28;20016;-73
2021/03/14 02:42:42;;;;;;;33.90;24.35;;;204.80;2252.80;;;;;;5074535;28;20099;-72
2021/03/14 02:45:10;;;;;;;38.85;25.30;;;204.80;2252.80;;;;;;5092134;28;20028;-73
2021/03/14 02:47:37;;;;;;;35.38;23.38;;;204.80;2252.80;;;;;;5092977;28;20024;-73
2021/03/14 02:50:15;;;;;;;34.35;24.75;;;204.90;2252.80;;;;;;5092384;28;20019;-73
2021/03/14 02:52:42;;;;;;;34.22;23.42;;;204.90;2252.80;;;;;;5091647;28;20008;-73
2021/03/14 02:55:10;;;;;;;32.33;23.52;;;204.90;2252.80;;;;;;5074111;28;20357;-73
2021/03/14 02:57:38;;;;;;;28.73;21.88;;;205.00;2252.80;;;;;;5092009;28;20027;-72
2021/03/14 03:00:11;;;;;;;30.48;22.13;;;205.00;2252.80;;;;;;5092107;28;20539;-73
2021/03/14 03:02:38;;;;;;;34.15;22.80;;;205.10;2252.80;;;;;;5074278;28;20024;-73
2021/03/14 03:05:08;;;;;;;29.35;22.20;;;205.10;2252.80;;;;;;5092622;28;20476;-72
2021/03/14 03:07:35;;;;;;;34.13;22.70;;;205.10;2252.80;;;;;;5091726;28;20063;-73
2021/03/14 03:10:01;;;;;;;32.70;21.73;;;205.20;2252.80;;;;;;5088212;28;20047;-73
2021/03/14 03:12:27;;;;;;;31.80;22.65;;;205.20;2227.20;;;;;;5092204;28;20055;-73
2021/03/14 03:14:56;;;;;;;31.08;23.10;;;205.20;2227.20;;;;;;5091605;28;20131;-73
2021/03/14 03:17:24;;;;;;;32.35;21.55;;;205.20;2227.20;;;;;;5074250;28;20024;-72
2021/03/14 03:19:52;;;;;;;31.50;22.17;;;205.20;2227.20;;;;;;5091585;28;20476;-73
2021/03/14 03:22:18;;;;;;;31.08;21.60;;;205.20;2201.60;;;;;;5073551;28;20024;-73
2021/03/14 03:24:44;;;;;;;31.63;19.70;;;205.30;2201.60;;;;;;5078902;28;20035;-73
2021/03/14 03:27:10;;;;;;;33.15;21.45;;;205.20;2201.60;;;;;;5086699;28;20026;-73
2021/03/14 03:29:36;;;;;;;30.58;21.90;;;205.20;2201.60;;;;;;5081780;28;20361;-73
2021/03/14 03:32:02;;;;;;;32.72;21.38;;;205.20;2227.20;;;;;;5071178;28;20036;-73
2021/03/14 03:34:28;;;;;;;30.35;22.40;;;205.20;2227.20;;;;;;5080278;28;20495;-73
2021/03/14 03:36:54;;;;;;;27.63;21.13;;;205.20;2227.20;;;;;;5090474;28;20051;-73
2021/03/14 03:39:20;;;;;;;28.35;20.10;;;205.20;2201.60;;;;;;5072380;28;20849;-74
2021/03/14 03:41:50;;;;;;;31.63;20.55;;;205.20;2201.60;;;;;;5091486;28;20103;-73
2021/03/14 03:44:19;;;;;;;31.13;21.40;;;205.20;2227.20;;;;;;5091440;28;20166;-74
2021/03/14 03:46:48;;;;;;;27.75;20.55;;;205.20;2201.60;;;;;;5091315;28;20387;-73
2021/03/14 03:49:15;;;;;;;26.70;20.75;;;205.20;2227.20;;;;;;5073988;28;20027;-73
2021/03/14 03:51:41;;;;;;;28.20;20.13;;;205.20;2201.60;;;;;;5071970;28;20028;-73
2021/03/14 03:54:09;;;;;;;28.33;20.67;;;205.10;2201.60;;;;;;5073906;28;20507;-73
2021/03/14 03:56:36;;;;;;;29.95;19.63;;;205.10;2201.60;;;;;;5073140;28;20028;-73
2021/03/14 03:59:04;;;;;;;26.83;19.02;;;205.10;2201.60;;;;;;5068046;28;20070;-74
2021/03/14 04:01:31;;;;;;;27.98;18.92;;;205.10;2201.60;;;;;;5059814;28;20017;-72
2021/03/14 04:03:58;;;;;;;26.73;18.70;;;205.20;2201.60;;;;;;5088434;28;20101;-73
2021/03/14 04:06:25;;;;;;;26.98;18.13;;;205.20;2201.60;;;;;;5095724;28;20024;-73
2021/03/14 04:08:51;;;;;;;28.35;18.15;;;205.20;2201.60;;;;;;5069209;28;20043;-73
2021/03/14 04:11:19;;;;;;;24.58;18.65;;;205.20;2201.60;;;;;;5090416;28;20047;-72
2021/03/14 04:13:46;;;;;;;22.70;18.25;;;205.20;2201.60;;;;;;5089270;28;20391;-73
2021/03/14 04:16:13;;;;;;;26.02;18.88;;;205.20;2201.60;;;;;;5090763;28;20020;-73
2021/03/14 04:18:40;;;;;;;22.25;17.92;;;205.10;2201.60;;;;;;5072353;28;20107;-73
2021/03/14 04:21:08;;;;;;;24.88;18.33;;;205.10;2201.60;;;;;;5071616;28;20111;-73
2021/03/14 04:23:36;;;;;;;26.08;18.95;;;205.10;2201.60;;;;;;5090154;28;20114;-73
2021/03/14 04:26:03;;;;;;;25.65;17.75;;;205.10;2201.60;;;;;;5090847;28;20103;-72
2021/03/14 04:28:32;;;;;;;26.50;18.00;;;205.10;2201.60;;;;;;5091277;28;20023;-73
2021/03/14 04:30:59;;;;;;;24.92;19.23;;;205.10;2227.20;;;;;;5091061;28;20061;-74
2021/03/14 04:33:28;;;;;;;26.40;19.30;;;205.10;2227.20;;;;;;5097906;28;20031;-74
2021/03/14 04:35:58;;;;;;;25.40;17.80;;;205.10;2227.20;;;;;;5090795;28;20091;-73
2021/03/14 04:38:27;;;;;;;26.75;18.55;;;205.10;2227.20;;;;;;5073199;28;20024;-73
2021/03/14 04:40:55;;;;;;;25.30;17.95;;;205.10;2227.20;;;;;;5091275;28;20387;-73
2021/03/14 04:43:23;;;;;;;25.15;19.40;;;205.10;2227.20;;;;;;5090431;28;20097;-73
2021/03/14 04:45:50;;;;;;;23.90;17.73;;;205.10;2227.20;;;;;;5073229;28;20450;-73
2021/03/14 04:48:20;;;;;;;28.17;17.70;;;205.10;2227.20;;;;;;5091103;28;20063;-73
2021/03/14 04:50:48;;;;;;;28.77;19.25;;;205.00;2252.80;;;;;;5090778;28;20111;-73
2021/03/14 04:53:14;;;;;;;29.90;17.88;;;205.10;2252.80;;;;;;5072876;28;20028;-73
2021/03/14 04:55:42;;;;;;;23.75;17.38;;;205.10;2252.80;;;;;;5091084;28;20481;-74
2021/03/14 04:58:12;;;;;;;25.73;18.63;;;205.10;2252.80;;;;;;5072919;28;20020;-73
2021/03/14 05:00:40;;;;;;;29.50;20.45;;;205.10;2252.80;;;;;;5091017;28;20027;-73
2021/03/14 05:03:11;;;;;;;24.27;19.48;;;205.20;2252.80;;;;;;5092828;28;20028;-73
2021/03/14 05:05:41;;;;;;;26.55;18.33;;;205.10;2252.80;;;;;;5076118;28;20036;-73
2021/03/14 05:08:09;;;;;;;28.30;19.95;;;205.20;2252.80;;;;;;5094813;28;20024;-73
2021/03/14 05:10:37;;;;;;;22.52;17.08;;;205.20;2252.80;;;;;;5094698;28;20380;-73
2021/03/14 05:13:03;;;;;;;24.10;18.02;;;205.20;2252.80;;;;;;5093795;28;20077;-73
2021/03/14 05:15:30;;;;;;;25.25;17.80;;;205.30;2252.80;;;;;;5076461;28;20051;-72
2021/03/14 05:17:56;;;;;;;25.75;17.65;;;205.30;2252.80;;;;;;5092994;28;20016;-73
2021/03/14 05:20:22;;;;;;;24.33;18.00;;;205.30;2252.80;;;;;;5081610;28;20107;-73
2021/03/14 05:22:49;;;;;;;28.83;19.52;;;205.30;2252.80;;;;;;5094328;28;20142;-73
2021/03/14 05:25:17;;;;;;;29.77;20.42;;;205.30;2252.80;;;;;;5094551;28;20024;-74
2021/03/14 05:27:49;;;;;;;29.73;19.38;;;205.30;2252.80;;;;;;5075229;28;20371;-75
2021/03/14 05:30:45;;;;;;;27.67;19.90;;;205.30;2252.80;;;;;;5094422;28;20099;-74
2021/03/14 05:33:11;;;;;;;28.98;20.25;;;205.30;2252.80;;;;;;5012094;28;20534;-74
2021/03/14 05:35:38;;;;;;;26.40;19.02;;;205.30;2252.80;;;;;;5011467;28;20156;-74
2021/03/14 05:38:03;;;;;;;27.70;18.75;;;205.40;2252.80;;;;;;5011250;28;20493;-74
2021/03/14 05:40:30;;;;;;;27.33;19.50;;;205.40;2252.80;;;;;;5011913;28;20109;-74
2021/03/14 05:42:57;;;;;;;24.20;19.85;;;205.40;2252.80;;;;;;5011101;28;20037;-73
2021/03/14 05:45:24;;;;;;;28.77;19.35;;;205.50;2252.80;;;;;;5011718;28;20030;-74
2021/03/14 05:47:50;;;;;;;27.42;19.92;;;205.50;2252.80;;;;;;5011939;28;20044;-74
2021/03/14 05:50:22;;;;;;;25.65;18.38;;;205.60;2252.80;;;;;;5011718;28;20517;-73
2021/03/14 05:52:49;;;;;;;25.42;18.33;;;205.70;2252.80;;;;;;5011786;28;20034;-73
2021/03/14 05:55:19;;;;;;;25.13;18.00;;;205.70;2252.80;;;;;;5012115;28;20079;-73
2021/03/14 05:57:48;;;;;;;24.15;17.98;;;205.70;2227.20;;;;;;4980440;28;20030;-72
2021/03/14 06:00:22;;;;;;;23.55;17.02;;;230.40;2227.20;;;;;;5012024;28;20021;-73
2021/03/14 06:02:48;;;;;;;21.60;17.13;;;230.50;2201.60;;;;;;5012069;28;20050;-73
2021/03/14 06:05:14;;;;;;;23.50;17.00;;;230.50;2176.00;;;;;;5010803;28;20026;-72
2021/03/14 06:07:40;;;;;;;22.20;16.90;;;230.60;2201.60;;;;;;5011836;28;20022;-73
2021/03/14 06:10:06;;;;;;;25.67;17.10;;;230.60;2201.60;;;;;;5048717;28;20036;-73
2021/03/14 06:12:32;;;;;;;23.48;16.70;;;230.60;2176.00;;;;;;5074641;28;20020;-72
2021/03/14 06:14:59;;;;;;;21.90;16.40;;;230.70;2176.00;;;;;;5092876;28;20043;-72
2021/03/14 06:17:27;;;;;;;25.10;18.83;;;230.70;2176.00;;;;;;5105332;28;20032;-73
2021/03/14 06:19:53;;;;;;;24.45;16.95;;;230.80;2176.00;;;;;;5079979;28;20085;-73
2021/03/14 06:22:24;;;;;;;23.10;17.83;;;230.80;2176.00;;;;;;5105675;28;20487;-72
2021/03/14 06:24:53;;;;;;;24.42;18.08;;;230.90;2176.00;;;;;;5092703;28;20062;-73
2021/03/14 06:27:37;;;;;;;22.75;16.80;;;231.00;2150.40;;;;;;5099922;28;20032;-73
2021/03/14 06:30:09;;;;;;;22.98;17.70;;;231.10;2124.80;;;;;;5080327;28;20030;-73
2021/03/14 06:32:37;;;;;;;22.33;15.77;;;231.20;2124.80;;;;;;5093369;28;20024;-74
2021/03/14 06:35:11;;;;;;;22.38;16.05;;;231.20;2124.80;;;;;;5092066;28;20027;-73
2021/03/14 06:37:37;;;;;;;24.30;17.55;;;231.20;2124.80;;;;;;5074532;28;20115;-73
2021/03/14 06:40:13;;;;;;;24.60;18.08;;;231.10;2124.80;;;;;;5092725;28;20102;-72
2021/03/14 06:42:39;;;;;;;27.90;19.35;;;231.10;2124.80;;;;;;5074060;28;20542;-73
2021/03/14 06:45:13;;;;;;;24.70;19.80;;;231.10;2150.40;;;;;;5074183;28;20039;-74
2021/03/14 06:47:48;;;;;;;24.10;16.13;;;231.10;2176.00;;;;;;5092855;28;20535;-74
2021/03/14 06:50:29;;;;;;;28.13;16.58;;;231.10;2150.40;;;;;;5073793;28;20031;-74
2021/03/14 06:53:18;;;;;;;22.58;16.67;;;231.10;2150.40;;;;;;5074598;28;20024;-74
2021/03/14 06:55:50;;;;;;;18.33;13.60;;;231.10;2150.40;;;;;;5073939;28;20016;-73
2021/03/14 06:58:34;;;;;;;21.75;14.50;;;231.10;2124.80;;;;;;5074728;28;20059;-73
2021/03/14 07:01:10;;;;;;;24.65;16.70;;;231.20;2150.40;;;;;;5074707;28;20388;-73
2021/03/14 07:03:38;;;;;;;22.02;14.95;;;231.30;2124.80;;;;;;5071051;28;20020;-73
2021/03/14 07:06:25;;;;;;;24.90;16.33;;;231.30;2124.80;;;;;;5107979;28;20054;-73
2021/03/14 07:08:58;;;;;;;19.90;15.68;;;256.00;2150.40;;;;;;5095330;28;20484;-73
2021/03/14 07:11:39;;;;;;;24.17;18.95;;;256.10;2150.40;;;;;;5089677;28;20085;-72
2021/03/14 07:14:09;;;;;;;28.20;20.52;;;256.10;2150.40;;;;;;5100493;28;20439;-72
2021/03/14 07:16:48;;;;;;;25.05;18.35;;;256.20;2124.80;;;;;;5089455;28;20496;-72
2021/03/14 07:19:28;;;;;;;21.65;16.73;;;256.30;2124.80;;;;;;5093945;28;20077;-72
2021/03/14 07:21:57;;;;;;;25.85;18.33;;;256.50;2099.20;;;;;;5098883;28;20021;-72
2021/03/14 07:24:29;;;;;;;26.00;18.33;;;256.80;2099.20;;;;;;5083346;28;20028;-72
2021/03/14 07:26:56;;;;;;;31.88;21.80;;;256.90;2073.60;;;;;;5090444;28;20020;-72
2021/03/14 07:29:23;;;;;;;34.00;20.88;;;281.80;2073.60;;;;;;5092382;28;20024;-72
2021/03/14 07:31:49;;;;;;;34.38;21.10;;;282.00;2048.00;;;;;;5076450;28;20090;-72
2021/03/14 07:34:16;;;;;;;36.50;19.90;;;282.40;2022.40;;;;;;5091026;28;20028;-72
2021/03/14 07:36:46;;;;;;;31.75;21.00;;;307.30;1996.80;;;;;;5083606;28;20020;-72
2021/03/14 07:39:12;;;;;;;39.03;21.02;;;307.60;1996.80;;;;;;5083059;28;20028;-72
2021/03/14 07:41:39;;;;;;;23.70;17.15;;;308.00;1945.60;;;;;;5102175;28;20073;-72
2021/03/14 07:44:07;;;;;;;26.80;15.57;;;333.00;1920.00;;;;;;5090880;28;20107;-72
2021/03/14 07:46:34;;;;;;;25.55;16.02;;;333.20;1894.40;;;;;;5090607;28;20433;-72
2021/03/14 07:49:02;;;;;;;21.00;13.88;;;333.30;1843.20;;;;;;5073067;28;20032;-72
2021/03/14 07:51:30;;;;;;;23.55;16.83;;;333.30;1843.20;;;;;;5073669;28;20090;-73
2021/03/14 07:54:05;;;;;;;22.67;16.15;;;333.50;1843.20;;;;;;5091541;28;20020;-72
2021/03/14 07:56:34;;;;;;;20.60;11.70;;;333.50;1843.20;;;;;;5094659;28;20121;-72
2021/03/14 07:59:00;;;;;;;19.50;13.05;;;333.70;1792.00;;;;;;5085249;28;20085;-73
2021/03/14 08:01:28;;;;;;;17.73;13.65;;;358.40;1792.00;;;;;;5091169;28;20032;-73
2021/03/14 08:03:54;;;;;;;19.83;13.55;;;358.70;1766.40;;;;;;5072314;28;20038;-73
2021/03/14 08:06:45;;;;;;;16.55;11.15;;;358.90;1740.80;;;;;;5070568;28;20035;-72
2021/03/14 08:09:11;;;;;;;12.57;10.57;;;359.00;1689.60;;;;;;5090714;28;20119;-73
2021/03/14 08:11:37;;;;;;;20.77;13.68;;;359.10;1689.60;;;;;;5074035;28;20016;-73
2021/03/14 08:14:04;;;;;;;17.88;13.90;;;359.30;1664.00;;;;;;5075140;28;20054;-73
2021/03/14 08:16:30;;;;;;;16.65;9.95;;;384.20;1638.40;;;;;;5093328;28;20119;-73
2021/03/14 08:18:57;;;;;;;14.43;9.75;;;384.50;1612.80;;;;;;5072440;28;20107;-73
2021/03/14 08:21:29;;;;;;;15.48;12.07;;;409.60;1587.20;;;;;;5092302;28;20476;-73
2021/03/14 08:23:59;;;;;;;10.77;8.75;;;410.10;1561.60;;;;;;5091196;28;20024;-73
2021/03/14 08:26:27;;;;;;;14.82;10.95;;;410.30;1536.00;;;;;;5071224;28;20020;-73
2021/03/14 08:29:02;;;;;;;17.33;10.55;;;410.40;1510.40;;;;;;5092638;28;20120;-74
2021/03/14 08:31:40;;;;;;;12.38;10.10;;;435.20;1510.40;;;;;;5092097;28;20078;-73
2021/03/14 08:34:09;;;;;;;16.92;11.82;;;435.40;1459.20;;;;;;5098488;28;20031;-73
2021/03/14 08:36:43;;;;;;;15.02;10.95;;;435.40;1484.80;;;;;;5093629;28;20035;-73
2021/03/14 08:39:32;;;;;;;14.93;9.27;;;435.60;1484.80;;;;;;5103759;28;20024;-73
2021/03/14 08:42:00;;;;;;;11.75;9.25;;;435.40;1484.80;;;;;;5090147;28;20101;-72
2021/03/14 08:44:32;;;;;;;13.57;10.07;;;435.50;1484.80;;;;;;5095006;28;20028;-73
2021/03/14 08:46:59;;;;;;;16.33;11.20;;;410.30;1510.40;;;;;;5085981;28;20055;-73
2021/03/14 08:49:27;;;;;;;12.45;9.70;;;410.10;1536.00;;;;;;5091441;28;20032;-72
2021/03/14 08:51:53;;;;;;;12.40;9.43;;;410.10;1536.00;;;;;;5077195;28;20039;-73
2021/03/14 08:54:30;;;;;;;15.63;9.43;;;409.90;1536.00;;;;;;5094469;28;20095;-73
2021/03/14 08:56:58;;;;;;;14.50;9.45;;;409.90;1561.60;;;;;;5101238;28;20021;-73
2021/03/14 08:59:25;;;;;;;13.82;10.75;;;409.90;1561.60;;;;;;5093678;28;20032;-73
2021/03/14 09:01:53;;;;;;;16.60;11.00;;;409.90;1561.60;;;;;;5093983;28;20105;-73
2021/03/14 09:04:21;;;;;;;17.05;11.70;;;410.00;1561.60;;;;;;5076443;28;20035;-73
2021/03/14 09:06:48;;;;;;;16.75;12.57;;;409.90;1612.80;;;;;;5094544;28;20021;-73
2021/03/14 09:09:21;;;;;;;15.82;11.95;;;410.10;1587.20;;;;;;5097432;28;20074;-72
2021/03/14 09:11:55;;;;;;;18.70;12.88;;;410.30;1561.60;;;;;;5093433;28;20027;-72
2021/03/14 09:14:36;;;;;;;15.18;11.02;;;410.40;1561.60;;;;;;5104517;27;20046;-72
2021/03/14 09:17:16;;;;;;;13.85;9.05;;;435.20;1561.60;;;;;;5100840;28;20028;-72
2021/03/14 09:19:49;;;;;;;12.88;10.57;;;435.20;1510.40;;;;;;5097335;28;20015;-73
2021/03/14 09:22:20;;;;;;;15.90;9.38;;;435.60;1510.40;;;;;;5094373;28;20077;-72
2021/03/14 09:24:48;;;;;;;29.88;14.15;;;435.60;1484.80;;;;;;5076701;28;20030;-73
2021/03/14 09:27:15;;;;;;;19.75;12.40;;;435.60;1484.80;;;;;;5076246;28;20392;-73
2021/03/14 09:29:46;;;;;;;23.48;14.77;;;435.90;1484.80;;;;;;5094228;28;20027;-73
2021/03/14 09:32:32;;;;;;;18.75;10.52;;;435.90;1433.60;;;;;;5081449;28;20032;-73
2021/03/14 09:35:25;;;;;;;17.73;9.27;;;460.80;1433.60;;;;;;5075889;28;20059;-73
2021/03/14 09:37:59;;;;;;;14.55;7.63;;;461.00;1382.40;;;;;;5075951;28;20017;-73
2021/03/14 09:40:28;;;;;;;14.00;7.57;;;461.10;1356.80;;;;;;5093779;28;20024;-73
2021/03/14 09:43:09;;;;;;;7.85;3.70;;;461.30;1305.60;;;;;;5096835;28;20024;-73
2021/03/14 09:45:37;;;;;;;9.95;3.95;;;461.30;1280.00;;;;;;5090766;28;20118;-73
2021/03/14 09:48:10;;;;;;;7.10;4.13;;;461.50;1254.40;;;;;;5073789;28;20035;-73
2021/03/14 09:50:39;;;;;;;5.78;3.55;;;461.60;1228.80;;;;;;5091811;28;20024;-73
2021/03/14 09:53:07;;;;;;;8.15;4.32;;;461.60;1254.40;;;;;;5105848;28;20036;-73
2021/03/14 09:55:36;;;;;;;11.20;4.80;;;486.40;1228.80;;;;;;5093342;28;20016;-73
2021/03/14 09:58:03;;;;;;;9.80;4.63;;;461.50;1228.80;;;;;;5093490;28;20556;-73
2021/03/14 10:00:32;;;;;;;14.68;7.40;;;461.10;1228.80;;;;;;5094657;28;20043;-73
2021/03/14 10:03:00;;;;;;;19.48;11.93;;;436.00;1280.00;;;;;;5085557;28;20544;-74
2021/03/14 10:05:26;;;;;;;12.68;6.75;;;435.70;1356.80;;;;;;5096057;28;20396;-73
2021/03/14 10:07:53;;;;;;;9.43;5.10;;;435.40;1433.60;;;;;;5074131;28;20029;-73
2021/03/14 10:10:21;;;;;;;8.23;4.97;;;435.20;1433.60;;;;;;5093682;28;20016;-73
2021/03/14 10:12:48;;;;;;;12.68;5.75;;;435.30;1484.80;;;;;;5093040;28;20589;-73
2021/03/14 10:15:18;;;;;;;10.95;5.18;;;435.50;1433.60;;;;;;5073835;28;20052;-74
2021/03/14 10:17:45;;;;;;;9.23;5.00;;;435.60;1484.80;;;;;;5092577;28;20404;-72
2021/03/14 10:20:12;;;;;;;11.30;7.57;;;435.70;1510.40;;;;;;5093469;28;20099;-72
2021/03/14 10:22:38;;;;;;;13.43;7.90;;;460.80;1484.80;;;;;;5088536;28;20373;-72
2021/03/14 10:25:06;;;;;;;9.90;5.30;;;461.10;1459.20;;;;;;5073690;28;20032;-72
2021/03/14 10:27:32;;;;;;;15.80;8.85;;;486.40;1356.80;;;;;;5092122;28;20028;-72
2021/03/14 10:30:01;;;;;;;10.80;6.97;;;512.00;1254.40;;;;;;5092946;28;20032;-74
2021/03/14 10:32:29;;;;;;;10.55;6.10;;;512.50;1203.20;;;;;;5092894;28;20361;-74
2021/03/14 10:35:03;;;;;;;13.85;6.05;;;537.60;1203.20;;;;;;5068559;28;20086;-74
2021/03/14 10:37:35;;;;;;;12.48;5.63;;;512.50;1152.00;;;;;;5094635;28;20017;-74
2021/03/14 10:40:07;;;;;;;9.05;6.18;;;512.80;1152.00;;;;;;5071684;28;20023;-74
2021/03/14 10:42:36;;;;;;;8.65;4.05;;;537.60;1152.00;;;;;;5088265;28;20043;-74
2021/03/14 10:45:24;;;;;;;9.55;4.60;;;537.70;1075.20;;;;;;5091823;28;20032;-74
2021/03/14 10:48:04;;;;;;;6.68;3.80;;;537.90;1075.20;;;;;;5091246;28;20075;-74
2021/03/14 10:50:31;;;;;;;7.20;4.53;;;512.90;1075.20;;;;;;5102053;28;20028;-73
2021/03/14 10:53:19;;;;;;;8.18;5.80;;;512.30;1126.40;;;;;;5072080;28;20115;-74
2021/03/14 10:55:46;;;;;;;7.05;4.10;;;512.20;1126.40;;;;;;5099878;28;20042;-73
2021/03/14 10:58:17;;;;;;;8.77;5.15;;;487.30;1152.00;;;;;;5077755;28;20038;-73
2021/03/14 11:00:54;;;;;;;8.77;4.40;;;487.20;1126.40;;;;;;5091768;28;20026;-73
2021/03/14 11:03:36;;;;;;;13.75;5.20;;;487.00;1152.00;;;;;;5089738;28;20032;-73
2021/03/14 11:06:14;;;;;;;6.38;4.05;;;487.10;1152.00;;;;;;5068131;28;20020;-73
2021/03/14 11:09:03;;;;;;;9.98;4.93;;;486.90;1203.20;;;;;;5074395;28;20071;-73
2021/03/14 11:11:55;;;;;;;8.55;4.65;;;486.90;1203.20;;;;;;5090581;28;20074;-73
2021/03/14 11:14:35;;;;;;;13.70;7.47;;;486.50;1177.60;;;;;;5095856;28;20040;-74
2021/03/14 11:17:19;;;;;;;11.80;7.43;;;486.50;1203.20;;;;;;5090223;28;20040;-73
2021/03/14 11:19:47;;;;;;;8.80;5.28;;;461.60;1177.60;;;;;;5073104;28;20059;-73
2021/03/14 11:22:18;;;;;;;7.90;4.32;;;461.50;1203.20;;;;;;5090358;28;20024;-74
2021/03/14 11:24:47;;;;;;;10.10;6.35;;;461.70;1203.20;;;;;;5088699;28;20036;-74
2021/03/14 11:27:15;;;;;;;16.00;10.02;;;486.40;1228.80;;;;;;5073087;28;20374;-74
2021/03/14 11:29:41;;;;;;;10.02;5.78;;;486.50;1228.80;;;;;;5089980;28;20614;-74
2021/03/14 11:32:10;;;;;;;8.13;4.28;;;486.40;1228.80;;;;;;5071253;28;20047;-74
2021/03/14 11:34:44;;;;;;;10.20;5.97;;;486.60;1203.20;;;;;;5065100;28;20023;-74
2021/03/14 11:37:11;;;;;;;9.57;5.80;;;487.10;1177.60;;;;;;5091223;28;20042;-73
2021/03/14 11:39:37;;;;;;;19.05;10.73;;;512.10;1152.00;;;;;;5095329;28;20023;-74
2021/03/14 11:42:04;;;;;;;9.07;5.18;;;487.30;1126.40;;;;;;5076655;28;20024;-75
2021/03/14 11:44:30;;;;;;;11.50;7.55;;;512.00;1126.40;;;;;;5089782;28;20582;-73
2021/03/14 11:46:56;;;;;;;15.98;8.90;;;512.30;1126.40;;;;;;5092964;28;20028;-74
2021/03/14 11:49:22;;;;;;;31.52;22.05;;;512.30;1152.00;;;;;;5104723;28;20397;-74
2021/03/14 11:51:48;;;;;;;21.63;11.82;;;512.50;1126.40;;;;;;5072735;28;20468;-74
2021/03/14 11:54:18;;;;;;;32.30;21.73;;;512.60;1075.20;;;;;;5068035;28;20090;-74
2021/03/14 11:56:48;;;;;;;13.68;7.90;;;512.90;1049.60;;;;;;5077053;28;20431;-74
2021/03/14 11:59:14;;;;;;;13.35;8.90;;;537.80;1049.60;;;;;;5092023;28;20016;-74
2021/03/14 12:01:43;;;;;;;6.30;3.88;;;537.70;1075.20;;;;;;5091168;28;20035;-74
2021/03/14 12:04:09;;;;;;;16.48;5.13;;;537.60;1049.60;;;;;;5087538;28;20516;-74
2021/03/14 12:06:35;;;;;;;9.05;4.30;;;537.90;1024.00;;;;;;5066275;28;20063;-74
2021/03/14 12:09:03;;;;;;;8.20;4.38;;;538.20;1024.00;;;;;;5073982;28;20031;-74
2021/03/14 12:11:29;;;;;;;10.07;5.60;;;563.20;998.40;;;;;;5074185;28;20400;-75